createdAt,value
2022-11-15T00:03:02.110Z,40.65
2022-11-15T00:05:49.941Z,41.47
2022-11-15T00:08:36.742Z,41.33
2022-11-15T00:11:24.098Z,40.03
2022-11-15T00:14:11.008Z,41.85
2022-11-15T00:16:58.001Z,41.42
2022-11-15T00:19:44.429Z,39.38
2022-11-15T00:22:35.163Z,41.75
2022-11-15T00:25:22.316Z,42.75
2022-11-15T00:28:09.368Z,41.88
2022-11-15T00:31:02.180Z,40.28
2022-11-15T00:33:49.000Z,42.30
2022-11-15T00:36:35.927Z,39.90
2022-11-15T00:39:23.166Z,41.42
2022-11-15T00:42:09.781Z,41.95
2022-11-15T00:44:56.912Z,40.08
2022-11-15T00:47:47.315Z,40.88
2022-11-15T00:50:34.682Z,39.17
2022-11-15T00:53:21.422Z,38.85
2022-11-15T00:56:08.556Z,43.22
2022-11-15T00:58:55.557Z,41.13
2022-11-15T01:01:42.919Z,39.38
2022-11-15T01:04:30.118Z,38.85
2022-11-15T01:07:17.030Z,41.50
2022-11-15T01:10:05.926Z,41.33
2022-11-15T01:12:53.160Z,41.40
2022-11-15T01:15:43.364Z,41.67
2022-11-15T01:18:30.160Z,42.08
2022-11-15T01:21:19.959Z,41.65
2022-11-15T01:24:07.495Z,39.65
2022-11-15T01:26:54.543Z,41.13
2022-11-15T01:29:41.624Z,40.45
2022-11-15T01:32:28.536Z,47.85
2022-11-15T01:35:17.613Z,41.58
2022-11-15T01:38:04.671Z,59.50
2022-11-15T01:40:51.777Z,48.03
2022-11-15T01:43:38.513Z,44.30
2022-11-15T01:46:34.819Z,38.03
2022-11-15T01:49:24.142Z,36.70
2022-11-15T01:52:16.602Z,42.17
2022-11-15T01:55:09.486Z,42.33
2022-11-15T01:58:00.825Z,43.53
2022-11-15T02:00:49.161Z,40.47
2022-11-15T02:03:53.343Z,33.45
2022-11-15T02:06:42.360Z,35.10
2022-11-15T02:09:30.259Z,35.33
2022-11-15T02:12:20.842Z,35.42
2022-11-15T02:15:09.889Z,36.55
2022-11-15T02:18:12.038Z,37.15
2022-11-15T02:24:26.071Z,34.55
2022-11-15T02:27:30.189Z,32.67
2022-11-15T02:30:24.563Z,32.88
2022-11-15T02:33:23.716Z,31.83
2022-11-15T02:36:44.000Z,32.03
2022-11-15T02:39:37.986Z,33.35
2022-11-15T02:42:52.147Z,33.53
2022-11-15T02:45:49.701Z,33.00
2022-11-15T02:48:38.223Z,33.05
2022-11-15T02:51:25.672Z,33.53
2022-11-15T02:54:24.363Z,33.53
2022-11-15T02:57:20.360Z,35.05
2022-11-15T03:00:13.909Z,33.97
2022-11-15T03:03:24.060Z,34.65
2022-11-15T03:06:23.518Z,34.63
2022-11-15T03:09:31.817Z,34.80
2022-11-15T03:12:30.734Z,34.75
2022-11-15T03:15:31.540Z,33.45
2022-11-15T03:18:28.052Z,32.67
2022-11-15T03:21:17.046Z,34.20
2022-11-15T03:24:06.622Z,35.13
2022-11-15T03:26:57.486Z,42.67
2022-11-15T03:29:53.333Z,55.53
2022-11-15T03:32:59.135Z,46.67
2022-11-15T03:35:48.865Z,44.22
2022-11-15T03:38:36.709Z,39.65
2022-11-15T03:41:33.992Z,39.65
2022-11-15T03:44:53.411Z,37.55
2022-11-15T03:47:45.055Z,36.42
2022-11-15T03:50:33.130Z,35.88
2022-11-15T03:53:20.140Z,36.00
2022-11-15T03:56:07.636Z,35.45
2022-11-15T03:58:54.736Z,35.50
2022-11-15T04:01:41.841Z,36.45
2022-11-15T04:04:28.524Z,37.78
2022-11-15T04:07:15.566Z,37.92
2022-11-15T04:10:07.117Z,39.38
2022-11-15T04:12:54.217Z,35.22
2022-11-15T04:15:41.591Z,30.80
2022-11-15T04:18:28.465Z,30.88
2022-11-15T04:21:33.852Z,30.85
2022-11-15T04:24:21.008Z,30.33
2022-11-15T04:27:07.718Z,31.20
2022-11-15T04:29:54.877Z,30.95
2022-11-15T04:32:41.698Z,30.83
2022-11-15T04:35:29.136Z,30.15
2022-11-15T04:38:16.182Z,32.30
2022-11-15T04:41:04.088Z,35.67
2022-11-15T04:43:50.793Z,32.97
2022-11-15T04:46:37.923Z,30.42
2022-11-15T04:49:24.608Z,29.20
2022-11-15T04:52:12.116Z,32.30
2022-11-15T04:55:01.408Z,31.25
2022-11-15T04:57:59.923Z,31.77
2022-11-15T05:00:46.714Z,31.02
2022-11-15T05:03:52.957Z,32.92
2022-11-15T05:06:39.625Z,30.20
2022-11-15T05:09:26.888Z,31.70
2022-11-15T05:12:13.426Z,32.00
2022-11-15T05:15:00.374Z,31.52
2022-11-15T05:17:47.086Z,53.30
2022-11-15T05:20:34.390Z,34.25
2022-11-15T05:23:21.144Z,32.88
2022-11-15T05:26:09.481Z,32.40
2022-11-15T05:28:58.026Z,31.60
2022-11-15T05:31:44.854Z,30.92
2022-11-15T05:34:31.712Z,30.80
2022-11-15T05:37:19.486Z,32.63
2022-11-15T05:40:06.736Z,44.70
2022-11-15T05:42:54.209Z,33.53
2022-11-15T05:45:41.070Z,32.05
2022-11-15T05:48:29.464Z,31.20
2022-11-15T05:54:45.043Z,35.40
2022-11-15T05:57:32.165Z,32.55
2022-11-15T06:00:19.328Z,39.78
2022-11-15T06:03:06.606Z,34.10
2022-11-15T06:05:53.630Z,32.42
2022-11-15T06:08:41.008Z,31.65
2022-11-15T06:11:28.931Z,34.03
2022-11-15T06:14:16.270Z,36.17
2022-11-15T06:17:07.287Z,31.75
2022-11-15T06:19:57.730Z,31.23
2022-11-15T06:22:44.450Z,31.58
2022-11-15T06:25:32.490Z,32.22
2022-11-15T06:28:19.041Z,33.03
2022-11-15T06:31:12.450Z,32.28
2022-11-15T06:33:59.097Z,31.90
2022-11-15T06:36:49.574Z,31.15
2022-11-15T06:39:36.415Z,32.63
2022-11-15T06:42:23.868Z,32.60
2022-11-15T06:45:10.800Z,32.63
2022-11-15T06:47:58.706Z,31.60
2022-11-15T06:50:53.326Z,32.88
2022-11-15T06:53:40.290Z,31.05
2022-11-15T06:56:27.022Z,32.17
2022-11-15T06:59:14.223Z,32.05
2022-11-15T07:02:00.976Z,32.22
2022-11-15T07:04:48.198Z,31.75
2022-11-15T07:07:35.015Z,31.83
2022-11-15T07:10:25.340Z,31.33
2022-11-15T07:13:12.376Z,33.08
2022-11-15T07:16:04.190Z,31.25
2022-11-15T07:18:51.010Z,29.95
2022-11-15T07:21:37.998Z,30.42
2022-11-15T07:24:28.455Z,29.48
2022-11-15T07:27:15.865Z,29.38
2022-11-15T07:30:03.143Z,30.58
2022-11-15T07:33:02.859Z,29.42
2022-11-15T07:35:50.007Z,29.38
2022-11-15T07:38:42.607Z,30.15
2022-11-15T07:41:30.962Z,30.48
2022-11-15T07:44:17.747Z,29.77
2022-11-15T07:47:04.891Z,30.38
2022-11-15T07:49:52.413Z,29.80
2022-11-15T07:52:39.508Z,30.98
2022-11-15T07:55:30.276Z,30.35
2022-11-15T07:58:17.389Z,30.23
2022-11-15T08:01:06.083Z,29.92
2022-11-15T08:03:52.983Z,32.05
2022-11-15T08:06:39.968Z,31.80
2022-11-15T08:09:26.888Z,33.80
2022-11-15T08:12:14.123Z,30.08
2022-11-15T08:15:00.769Z,30.55
2022-11-15T08:17:48.308Z,29.80
2022-11-15T08:20:35.310Z,29.73
2022-11-15T08:23:22.975Z,29.35
2022-11-15T08:26:10.609Z,29.35
2022-11-15T08:28:57.646Z,28.88
2022-11-15T08:31:44.192Z,28.75
2022-11-15T08:34:31.751Z,28.45
2022-11-15T08:37:18.268Z,26.35
2022-11-15T08:40:06.665Z,26.77
2022-11-15T08:42:53.720Z,26.88
2022-11-15T08:45:40.837Z,29.73
2022-11-15T08:48:27.823Z,29.10
2022-11-15T08:51:15.039Z,29.63
2022-11-15T08:54:01.982Z,34.35
2022-11-15T08:56:49.234Z,39.55
2022-11-15T08:59:36.649Z,35.00
2022-11-15T09:02:23.570Z,35.60
2022-11-15T09:05:10.427Z,30.90
2022-11-15T09:07:57.774Z,43.72
2022-11-15T09:10:44.674Z,30.80
2022-11-15T09:13:32.314Z,33.00
2022-11-15T09:16:18.944Z,30.20
2022-11-15T09:19:11.520Z,30.45
2022-11-15T09:21:58.406Z,27.95
2022-11-15T09:24:45.366Z,28.58
2022-11-15T09:27:32.407Z,28.02
2022-11-15T09:30:19.502Z,30.77
2022-11-15T09:33:10.956Z,27.98
2022-11-15T09:36:07.675Z,28.60
2022-11-15T09:38:54.536Z,27.30
2022-11-15T09:42:16.157Z,28.33
2022-11-15T09:45:24.943Z,27.30
2022-11-15T09:48:47.626Z,28.08
2022-11-15T09:51:48.879Z,29.63
2022-11-15T09:54:52.681Z,28.42
2022-11-15T09:57:44.622Z,28.85
2022-11-15T10:00:47.651Z,29.90
2022-11-15T10:03:26.379Z,30.13
2022-11-15T10:06:00.711Z,30.58
2022-11-15T10:08:51.035Z,31.17
2022-11-15T10:11:41.980Z,28.50
2022-11-15T10:14:15.343Z,30.73
2022-11-15T10:16:59.117Z,28.70
2022-11-15T10:19:39.340Z,28.75
2022-11-15T10:22:34.789Z,29.55
2022-11-15T10:25:18.671Z,28.42
2022-11-15T10:28:07.411Z,28.75
2022-11-15T10:30:42.280Z,32.05
2022-11-15T10:33:39.910Z,28.95
2022-11-15T10:36:21.103Z,32.05
2022-11-15T10:38:49.702Z,30.85
2022-11-15T10:41:19.522Z,30.17
2022-11-15T10:44:08.370Z,29.30
2022-11-15T10:46:46.557Z,28.45
2022-11-15T10:49:30.053Z,28.98
2022-11-15T10:54:37.339Z,29.83
2022-11-15T10:57:18.971Z,30.05
2022-11-15T10:59:50.983Z,31.25
2022-11-15T11:02:29.630Z,30.13
2022-11-15T11:04:59.413Z,30.38
2022-11-15T11:07:35.015Z,31.30
2022-11-15T11:10:49.316Z,36.70
2022-11-15T11:13:34.839Z,40.50
2022-11-15T11:16:20.890Z,43.40
2022-11-15T11:19:12.688Z,37.95
2022-11-15T11:24:40.618Z,38.13
2022-11-15T11:27:33.081Z,43.63
2022-11-15T11:30:17.670Z,37.80
2022-11-15T11:32:55.720Z,37.08
2022-11-15T11:35:40.186Z,35.13
2022-11-15T11:38:17.542Z,37.88
2022-11-15T11:41:00.714Z,33.95
2022-11-15T11:43:41.056Z,34.97
2022-11-15T11:46:29.771Z,34.28
2022-11-15T11:49:05.738Z,32.00
2022-11-15T11:52:00.622Z,32.88
2022-11-15T11:54:38.256Z,31.17
2022-11-15T11:57:16.377Z,32.30
2022-11-15T11:59:51.474Z,31.88
2022-11-15T12:02:29.552Z,31.63
2022-11-15T12:05:30.413Z,30.65
2022-11-15T12:08:21.773Z,29.77
2022-11-15T12:10:59.832Z,32.00
2022-11-15T12:13:35.922Z,30.85
2022-11-15T12:16:11.040Z,30.05
2022-11-15T12:18:39.481Z,30.08
2022-11-15T12:21:32.305Z,30.23
2022-11-15T12:26:44.593Z,29.88
2022-11-15T12:29:22.309Z,30.13
2022-11-15T12:31:56.811Z,28.60
2022-11-15T12:34:39.467Z,29.40
2022-11-15T12:37:39.095Z,29.17
2022-11-15T12:40:10.440Z,28.27
2022-11-15T12:42:57.931Z,27.80
2022-11-15T12:45:35.967Z,28.52
2022-11-15T12:48:18.113Z,29.20
2022-11-15T12:50:55.510Z,27.08
2022-11-15T12:53:24.852Z,29.02
2022-11-15T12:56:28.568Z,30.85
2022-11-15T12:59:03.659Z,28.83
2022-11-15T13:01:32.338Z,30.10
2022-11-15T13:04:22.762Z,29.92
2022-11-15T13:06:57.001Z,29.63
2022-11-15T13:09:37.769Z,30.55
2022-11-15T13:12:15.192Z,33.47
2022-11-15T13:15:25.944Z,38.58
2022-11-15T13:17:56.627Z,43.97
2022-11-15T13:20:33.944Z,32.75
2022-11-15T13:23:10.761Z,33.05
2022-11-15T13:25:54.389Z,34.72
2022-11-15T13:28:37.803Z,33.88
2022-11-15T13:31:19.285Z,36.22
2022-11-15T13:33:47.735Z,35.85
2022-11-15T13:36:19.940Z,43.08
2022-11-15T13:41:27.923Z,36.33
2022-11-15T13:46:36.583Z,36.70
2022-11-15T13:49:09.387Z,37.55
2022-11-15T13:51:46.989Z,36.40
2022-11-15T13:54:34.741Z,36.08
2022-11-15T13:57:16.093Z,39.38
2022-11-15T13:59:49.903Z,36.75
2022-11-15T14:02:21.546Z,35.83
2022-11-15T14:04:54.140Z,37.13
2022-11-15T14:07:26.123Z,34.05
2022-11-15T14:09:54.943Z,34.90
2022-11-15T14:12:31.089Z,33.30
2022-11-15T14:15:01.341Z,30.70
2022-11-15T14:17:30.019Z,32.78
2022-11-15T14:19:59.076Z,40.55
2022-11-15T14:22:30.992Z,35.95
2022-11-15T14:25:19.001Z,36.10
2022-11-15T14:28:11.226Z,31.20
2022-11-15T14:30:41.252Z,28.15
2022-11-15T14:33:26.799Z,31.48
2022-11-15T14:35:57.148Z,30.15
2022-11-15T14:38:27.077Z,34.45
2022-11-15T14:41:31.472Z,36.67
2022-11-15T14:44:13.675Z,35.70
2022-11-15T14:46:41.925Z,38.33
2022-11-15T14:49:10.463Z,37.55
2022-11-15T14:51:38.685Z,28.63
2022-11-15T14:54:10.881Z,29.70
2022-11-15T14:56:39.059Z,36.30
2022-11-15T14:59:07.615Z,37.45
2022-11-15T15:01:36.091Z,39.30
2022-11-15T15:04:20.612Z,30.50
2022-11-15T15:07:14.035Z,30.45
2022-11-15T15:09:44.084Z,35.65
2022-11-15T15:12:35.331Z,39.42
2022-11-15T15:15:04.363Z,38.90
2022-11-15T15:17:32.823Z,39.03
2022-11-15T15:20:01.372Z,31.42
2022-11-15T15:22:31.563Z,40.55
2022-11-15T15:25:00.488Z,28.15
2022-11-15T15:27:28.744Z,28.33
2022-11-15T15:29:57.369Z,34.63
2022-11-15T15:32:28.836Z,44.33
2022-11-15T15:35:06.534Z,44.30
2022-11-15T15:37:35.447Z,36.28
2022-11-15T15:40:38.038Z,31.95
2022-11-15T15:43:06.454Z,36.17
2022-11-15T15:45:35.860Z,35.45
2022-11-15T15:48:05.267Z,42.55
2022-11-15T15:50:35.322Z,52.42
2022-11-15T15:53:05.090Z,50.00
2022-11-15T15:55:34.003Z,42.28
2022-11-15T15:58:02.284Z,39.20
2022-11-15T16:00:34.133Z,44.97
2022-11-15T16:03:02.676Z,50.42
2022-11-15T16:05:31.389Z,57.50
2022-11-15T16:08:00.027Z,58.65
2022-11-15T16:10:35.536Z,54.83
2022-11-15T16:13:05.310Z,51.95
2022-11-15T16:15:35.158Z,63.50
2022-11-15T16:18:05.484Z,52.53
2022-11-15T16:20:45.432Z,79.90
2022-11-15T16:23:19.017Z,46.97
2022-11-15T16:25:56.697Z,42.08
2022-11-15T16:28:50.422Z,45.95
2022-11-15T16:31:21.083Z,58.03
2022-11-15T16:34:15.255Z,50.17
2022-11-15T16:36:43.941Z,54.03
2022-11-15T16:39:18.422Z,152.95
2022-11-15T16:41:47.950Z,70.72
2022-11-15T16:44:17.343Z,55.78
2022-11-15T16:46:52.091Z,58.78
2022-11-15T16:49:21.691Z,57.72
2022-11-15T16:51:50.628Z,56.63
2022-11-15T16:54:18.909Z,54.85
2022-11-15T16:56:48.125Z,81.93
2022-11-15T16:59:18.098Z,93.63
2022-11-15T17:01:51.576Z,62.90
2022-11-15T17:04:22.943Z,57.75
2022-11-15T17:06:51.753Z,49.55
2022-11-15T17:09:26.529Z,54.45
2022-11-15T17:11:55.249Z,52.13
2022-11-15T17:14:49.069Z,96.97
2022-11-15T17:17:19.541Z,68.80
2022-11-15T17:19:47.733Z,61.72
2022-11-15T17:22:16.922Z,50.28
2022-11-15T17:24:45.132Z,53.22
2022-11-15T17:27:14.280Z,41.95
2022-11-15T17:29:43.052Z,40.88
2022-11-15T17:32:11.532Z,42.22
2022-11-15T17:34:39.728Z,47.55
2022-11-15T17:37:08.271Z,55.72
2022-11-15T17:39:36.477Z,56.45
2022-11-15T17:42:05.024Z,42.97
2022-11-15T17:44:33.378Z,48.50
2022-11-15T17:47:02.060Z,36.10
2022-11-15T17:49:30.287Z,47.70
2022-11-15T17:51:58.908Z,42.78
2022-11-15T17:54:27.019Z,50.67
2022-11-15T17:56:55.487Z,59.53
2022-11-15T17:59:23.838Z,54.67
2022-11-15T18:01:54.261Z,54.13
2022-11-15T18:04:28.287Z,48.50
2022-11-15T18:06:58.068Z,48.90
2022-11-15T18:09:26.793Z,44.50
2022-11-15T18:11:58.745Z,48.28
2022-11-15T18:14:27.462Z,48.00
2022-11-15T18:16:57.108Z,49.60
2022-11-15T18:19:25.423Z,41.38
2022-11-15T18:21:56.867Z,41.08
2022-11-15T18:24:28.636Z,40.42
2022-11-15T18:26:59.222Z,39.65
2022-11-15T18:29:34.936Z,51.17
2022-11-15T18:32:11.010Z,58.05
2022-11-15T18:34:39.266Z,54.90
2022-11-15T18:37:08.022Z,44.05
2022-11-15T18:39:48.537Z,48.42
2022-11-15T18:42:24.685Z,45.72
2022-11-15T18:45:23.891Z,40.60
2022-11-15T18:47:52.870Z,37.55
2022-11-15T18:50:21.215Z,38.28
2022-11-15T18:52:52.534Z,36.53
2022-11-15T18:55:20.735Z,33.00
2022-11-15T18:57:50.750Z,30.65
2022-11-15T19:00:19.571Z,31.90
2022-11-15T19:02:48.131Z,29.90
2022-11-15T19:05:18.813Z,32.55
2022-11-15T19:07:50.622Z,33.30
2022-11-15T19:10:21.889Z,30.83
2022-11-15T19:12:50.820Z,27.95
2022-11-15T19:15:19.818Z,29.92
2022-11-15T19:17:48.426Z,32.13
2022-11-15T19:20:17.117Z,31.70
2022-11-15T19:22:46.335Z,31.77
2022-11-15T19:25:14.914Z,31.80
2022-11-15T19:27:43.867Z,32.60
2022-11-15T19:30:12.777Z,33.20
2022-11-15T19:32:41.866Z,34.17
2022-11-15T19:35:10.188Z,33.70
2022-11-15T19:37:38.939Z,33.05
2022-11-15T19:40:07.898Z,32.28
2022-11-15T19:42:36.850Z,30.77
2022-11-15T19:45:08.417Z,30.15
2022-11-15T19:47:37.297Z,30.60
2022-11-15T19:50:05.841Z,31.45
2022-11-15T19:52:35.164Z,32.53
2022-11-15T19:55:03.405Z,34.35
2022-11-15T19:57:31.992Z,38.10
2022-11-15T20:00:05.845Z,37.38
2022-11-15T20:02:41.595Z,50.60
2022-11-15T20:05:11.891Z,33.58
2022-11-15T20:07:44.453Z,32.20
2022-11-15T20:10:14.705Z,106.32
2022-11-15T20:12:55.747Z,49.13
2022-11-15T20:15:23.871Z,37.22
2022-11-15T20:18:06.759Z,41.75
2022-11-15T20:21:00.766Z,57.92
2022-11-15T20:23:29.100Z,54.53
2022-11-15T20:25:57.913Z,71.07
2022-11-15T20:28:28.255Z,45.22
2022-11-15T20:31:00.971Z,35.03
2022-11-15T20:33:29.427Z,30.02
2022-11-15T20:35:57.909Z,31.05
2022-11-15T20:38:27.557Z,41.78
2022-11-15T20:41:01.687Z,33.78
2022-11-15T20:43:30.097Z,32.05
2022-11-15T20:48:46.202Z,46.03
2022-11-15T20:51:17.969Z,25.92
2022-11-15T20:54:11.360Z,23.67
2022-11-15T20:57:05.463Z,22.67
2022-11-15T21:00:26.169Z,28.02
2022-11-15T21:02:54.898Z,29.85
2022-11-15T21:05:48.304Z,25.02
2022-11-15T21:08:17.079Z,24.85
2022-11-15T21:11:22.457Z,23.45
2022-11-15T21:13:51.605Z,22.13
2022-11-15T21:16:19.867Z,23.85
2022-11-15T21:18:48.618Z,29.42
2022-11-15T21:21:17.263Z,53.58
2022-11-15T21:23:46.738Z,51.25
2022-11-15T21:26:18.569Z,32.88
2022-11-15T21:33:37.955Z,22.42
2022-11-15T21:36:07.205Z,23.35
2022-11-15T21:38:35.840Z,20.38
2022-11-15T21:41:06.983Z,33.47
2022-11-15T21:43:35.176Z,21.25
2022-11-15T21:46:06.338Z,21.45
2022-11-15T21:48:37.602Z,22.85
2022-11-15T21:51:08.919Z,29.50
2022-11-15T21:53:37.273Z,23.35
2022-11-15T21:56:07.009Z,27.02
2022-11-15T21:58:36.018Z,19.90
2022-11-15T22:01:23.517Z,24.10
2022-11-15T22:03:51.923Z,23.08
2022-11-15T22:06:20.419Z,28.45
2022-11-15T22:08:49.000Z,23.55
2022-11-15T22:11:17.577Z,22.35
2022-11-15T22:13:45.749Z,22.20
2022-11-15T22:16:14.211Z,21.33
2022-11-15T22:18:42.505Z,21.30
2022-11-15T22:21:13.194Z,22.58
2022-11-15T22:23:43.743Z,21.42
2022-11-15T22:26:16.542Z,20.45
2022-11-15T22:28:47.767Z,22.13
2022-11-15T22:31:16.258Z,24.55
2022-11-15T22:33:44.778Z,21.20
2022-11-15T22:36:13.503Z,22.67
2022-11-15T22:38:41.749Z,21.73
2022-11-15T22:41:10.517Z,22.73
2022-11-15T22:43:38.812Z,24.58
2022-11-15T22:46:07.312Z,25.73
2022-11-15T22:48:46.431Z,26.50
2022-11-15T22:51:15.090Z,23.08
2022-11-15T22:53:43.370Z,21.40
2022-11-15T22:56:15.129Z,23.40
2022-11-15T22:58:47.394Z,22.38
2022-11-15T23:01:21.899Z,22.55
2022-11-15T23:03:50.165Z,22.75
2022-11-15T23:06:18.744Z,25.02
2022-11-15T23:08:47.101Z,22.02
2022-11-15T23:11:34.244Z,25.52
2022-11-15T23:14:02.455Z,25.40
2022-11-15T23:16:34.797Z,24.33
2022-11-15T23:19:08.738Z,22.33
2022-11-15T23:22:02.040Z,22.20
2022-11-15T23:24:31.733Z,20.90
2022-11-15T23:27:03.058Z,22.55
2022-11-15T23:29:31.284Z,22.45
2022-11-15T23:32:18.297Z,23.00
2022-11-15T23:34:46.672Z,23.27
2022-11-15T23:37:15.807Z,22.13
2022-11-15T23:39:43.971Z,23.33
2022-11-15T23:42:20.349Z,24.08
2022-11-15T23:44:51.025Z,22.75
2022-11-15T23:47:19.803Z,23.03
2022-11-15T23:49:48.005Z,22.05
2022-11-15T23:52:17.407Z,22.17
2022-11-15T23:54:45.581Z,21.17
2022-11-15T23:57:14.252Z,20.60
2022-11-15T23:59:46.056Z,21.60
